createdAt,value
2018-09-23T00:04:34.465Z,97158.00
2018-09-23T00:09:38.320Z,97141.00
2018-09-23T00:14:42.128Z,97142.00
2018-09-23T00:19:46.430Z,97146.00
2018-09-23T00:24:50.481Z,97155.00
2018-09-23T00:29:54.637Z,97156.00
2018-09-23T00:34:58.458Z,97114.00
2018-09-23T00:40:02.513Z,97078.00
2018-09-23T00:45:06.414Z,97053.00
2018-09-23T00:50:10.625Z,97014.00
2018-09-23T00:55:14.685Z,96985.00
2018-09-23T01:00:18.489Z,96976.00
2018-09-23T01:05:22.581Z,96944.00
2018-09-23T01:10:26.401Z,96913.00
2018-09-23T01:15:31.417Z,96884.00
2018-09-23T01:20:35.676Z,96862.00
2018-09-23T01:25:39.809Z,96825.00
2018-09-23T01:30:43.857Z,96799.00
2018-09-23T01:35:47.931Z,96770.00
2018-09-23T01:40:51.983Z,96760.00
2018-09-23T01:45:55.797Z,96709.00
2018-09-23T01:51:00.368Z,96684.00
2018-09-23T01:56:04.420Z,96680.00
2018-09-23T02:01:08.465Z,96657.00
2018-09-23T02:06:12.296Z,96615.00
2018-09-23T02:11:16.362Z,96589.00
2018-09-23T02:16:20.424Z,96569.00
2018-09-23T02:21:25.188Z,96533.00
2018-09-23T02:26:29.081Z,96517.00
2018-09-23T02:31:33.433Z,96486.00
2018-09-23T02:36:37.528Z,96457.00
2018-09-23T02:41:41.608Z,96442.00
2018-09-23T02:46:45.431Z,96435.00
2018-09-23T02:51:49.280Z,96428.00
2018-09-23T02:56:53.370Z,96458.00
2018-09-23T03:01:57.165Z,96458.00
2018-09-23T03:07:01.285Z,96460.00
2018-09-23T03:12:05.422Z,96439.00
2018-09-23T03:17:09.373Z,96437.00
2018-09-23T03:22:13.498Z,96432.00
2018-09-23T03:27:17.630Z,96431.00
2018-09-23T03:32:22.226Z,96425.00
2018-09-23T03:37:26.102Z,96435.00
2018-09-23T03:42:31.078Z,96448.00
2018-09-23T03:47:35.270Z,96450.00
2018-09-23T03:52:39.370Z,96446.00
2018-09-23T03:57:43.442Z,96469.00
2018-09-23T04:02:47.534Z,96467.00
2018-09-23T04:07:51.386Z,96489.00
2018-09-23T04:12:55.491Z,96487.00
2018-09-23T04:17:59.578Z,96497.00
2018-09-23T04:23:03.705Z,96526.00
2018-09-23T04:28:07.561Z,96532.00
2018-09-23T04:33:11.694Z,96528.00
2018-09-23T04:38:15.794Z,96536.00
2018-09-23T04:43:19.878Z,96518.00
2018-09-23T04:48:24.090Z,96533.00
2018-09-23T04:53:27.966Z,96528.00
2018-09-23T04:58:32.067Z,96525.00
2018-09-23T05:03:36.149Z,96538.00
2018-09-23T05:08:40.348Z,96517.00
2018-09-23T05:13:45.090Z,96528.00
2018-09-23T05:18:49.030Z,96522.00
2018-09-23T05:23:53.118Z,96524.00
2018-09-23T05:28:57.242Z,96546.00
2018-09-23T05:34:01.339Z,96522.00
2018-09-23T05:39:08.583Z,96491.00
2018-09-23T05:44:12.711Z,96426.00
2018-09-23T05:49:16.803Z,96376.00
2018-09-23T05:54:20.624Z,96316.00
2018-09-23T05:59:24.869Z,96269.00
2018-09-23T06:04:28.957Z,96190.00
2018-09-23T06:09:32.798Z,95903.00
2018-09-23T06:14:36.877Z,95462.00
2018-09-23T06:19:40.741Z,95035.00
2018-09-23T06:24:44.820Z,94647.00
2018-09-23T06:29:48.666Z,94319.00
2018-09-23T06:34:52.574Z,94132.00
2018-09-23T06:39:56.709Z,93859.00
2018-09-23T06:45:00.851Z,93648.00
2018-09-23T06:50:05.108Z,93410.00
2018-09-23T06:55:12.015Z,93138.00
2018-09-23T07:00:16.126Z,92967.00
2018-09-23T07:05:20.246Z,92748.00
2018-09-23T07:10:24.597Z,92639.00
2018-09-23T07:15:28.598Z,92460.00
2018-09-23T07:20:32.673Z,92356.00
2018-09-23T07:25:36.912Z,92180.00
2018-09-23T07:30:41.074Z,92102.00
2018-09-23T07:35:45.252Z,91942.00
2018-09-23T07:40:49.426Z,91822.00
2018-09-23T07:45:53.606Z,91700.00
2018-09-23T07:50:57.790Z,91621.00
2018-09-23T07:56:01.986Z,91577.00
2018-09-23T08:01:06.041Z,91591.00
2018-09-23T08:06:10.054Z,91524.00
2018-09-23T08:11:14.223Z,91447.00
2018-09-23T08:16:18.372Z,91391.00
2018-09-23T08:21:22.594Z,91390.00
2018-09-23T08:26:26.853Z,91355.00
2018-09-23T08:31:31.362Z,91355.00
2018-09-23T08:36:35.540Z,91304.00
2018-09-23T08:41:39.849Z,91230.00
2018-09-23T08:46:44.618Z,91177.00
2018-09-23T08:51:48.783Z,91163.00
2018-09-23T08:56:52.626Z,91115.00
2018-09-23T09:01:56.774Z,91106.00
2018-09-23T09:07:00.881Z,91065.00
2018-09-23T09:12:04.993Z,91019.00
2018-09-23T09:17:09.194Z,91008.00
2018-09-23T09:22:13.316Z,91010.00
2018-09-23T09:27:17.454Z,90983.00
2018-09-23T09:32:21.584Z,90891.00
2018-09-23T09:37:25.729Z,90914.00
2018-09-23T09:42:29.596Z,90935.00
2018-09-23T09:47:33.698Z,90872.00
2018-09-23T09:52:37.831Z,90872.00
2018-09-23T09:57:41.656Z,90813.00
2018-09-23T10:02:45.746Z,90759.00
2018-09-23T10:07:50.417Z,90728.00
2018-09-23T10:12:54.526Z,90730.00
2018-09-23T10:17:58.619Z,90727.00
2018-09-23T10:23:02.506Z,90715.00
2018-09-23T10:28:06.578Z,90677.00
2018-09-23T10:33:10.509Z,90634.00
2018-09-23T10:38:14.574Z,90668.00
2018-09-23T10:43:18.674Z,90644.00
2018-09-23T10:48:23.220Z,90663.00
2018-09-23T10:53:27.697Z,90706.00
2018-09-23T10:58:31.769Z,90705.00
2018-09-23T11:03:35.908Z,90816.00
2018-09-23T11:08:39.790Z,90858.00
2018-09-23T11:13:43.865Z,90901.00
2018-09-23T11:18:47.940Z,90982.00
2018-09-23T11:23:52.050Z,90977.00
2018-09-23T11:28:56.280Z,90924.00
2018-09-23T11:34:00.097Z,90807.00
2018-09-23T11:39:06.094Z,90619.00
2018-09-23T11:44:10.290Z,90512.00
2018-09-23T11:49:14.369Z,90422.00
2018-09-23T11:54:18.447Z,90387.00
2018-09-23T11:59:23.121Z,90368.00
2018-09-23T12:04:27.233Z,90309.00
2018-09-23T12:09:31.295Z,90301.00
2018-09-23T12:14:35.369Z,90323.00
2018-09-23T12:19:39.506Z,90455.00
2018-09-23T12:24:43.389Z,90371.00
2018-09-23T12:29:47.503Z,91278.00
2018-09-23T12:34:51.695Z,90415.00
2018-09-23T12:39:55.864Z,90387.00
2018-09-23T12:44:59.946Z,90660.00
2018-09-23T12:50:04.251Z,91248.00
2018-09-23T12:55:08.465Z,91522.00
2018-09-23T13:00:13.529Z,92206.00
2018-09-23T13:05:17.645Z,92930.00
2018-09-23T13:10:21.512Z,93429.00
2018-09-23T13:15:25.639Z,93847.00
2018-09-23T13:20:29.738Z,94204.00
2018-09-23T13:25:34.137Z,94484.00
2018-09-23T13:30:38.330Z,94909.00
2018-09-23T13:35:42.415Z,96763.00
2018-09-23T13:40:46.509Z,96973.00
2018-09-23T13:45:50.920Z,97143.00
2018-09-23T13:50:55.183Z,97273.00
2018-09-23T13:55:59.080Z,97205.00
2018-09-23T14:01:03.152Z,97299.00
2018-09-23T14:06:07.318Z,97298.00
2018-09-23T14:11:11.569Z,97298.00
2018-09-23T14:16:15.425Z,97293.00
2018-09-23T14:21:19.589Z,97296.00
2018-09-23T14:26:24.342Z,97191.00
2018-09-23T14:31:28.427Z,97226.00
2018-09-23T14:36:32.636Z,97133.00
2018-09-23T14:41:36.818Z,97084.00
2018-09-23T14:46:40.653Z,97063.00
2018-09-23T14:51:44.806Z,97014.00
2018-09-23T14:56:48.879Z,97041.00
2018-09-23T15:01:53.006Z,97072.00
2018-09-23T15:06:56.873Z,97059.00
2018-09-23T15:12:01.422Z,97102.00
2018-09-23T15:17:05.519Z,97103.00
2018-09-23T15:22:09.788Z,97169.00
2018-09-23T15:27:14.754Z,97126.00
2018-09-23T15:32:18.881Z,97098.00
2018-09-23T15:37:23.144Z,97175.00
2018-09-23T15:42:27.125Z,97273.00
2018-09-23T15:47:30.909Z,97314.00
2018-09-23T15:52:35.313Z,97784.00
2018-09-23T15:57:39.542Z,98429.00
2018-09-23T16:02:43.397Z,98726.00
2018-09-23T16:07:47.523Z,98869.00
2018-09-23T16:12:51.622Z,99000.00
2018-09-23T16:17:55.763Z,99125.00
2018-09-23T16:22:59.858Z,99260.00
2018-09-23T16:28:03.956Z,99250.00
2018-09-23T16:33:08.117Z,99358.00
2018-09-23T16:38:11.978Z,99498.00
2018-09-23T16:43:16.080Z,99447.00
2018-09-23T16:48:20.666Z,99234.00
2018-09-23T16:53:24.844Z,99105.00
2018-09-23T16:58:28.955Z,98978.00
2018-09-23T17:03:33.041Z,98966.00
2018-09-23T17:08:37.269Z,98979.00
2018-09-23T17:13:41.357Z,99037.00
2018-09-23T17:18:45.653Z,99166.00
2018-09-23T17:23:50.110Z,99156.00
2018-09-23T17:28:54.561Z,99190.00
2018-09-23T17:33:58.754Z,99180.00
2018-09-23T17:39:03.013Z,99551.00
2018-09-23T17:44:09.440Z,99588.00
2018-09-23T17:49:13.621Z,99617.00
2018-09-23T17:54:17.814Z,99674.00
2018-09-23T17:59:21.678Z,99716.00
2018-09-23T18:04:26.151Z,99750.00
2018-09-23T18:09:30.276Z,99782.00
2018-09-23T18:14:34.434Z,99834.00
2018-09-23T18:19:38.594Z,99882.00
2018-09-23T18:24:42.694Z,99935.00
2018-09-23T18:29:47.503Z,99986.00
2018-09-23T18:34:51.277Z,100067.00
2018-09-23T18:39:55.306Z,100177.00
2018-09-23T18:44:59.427Z,100205.00
2018-09-23T18:50:03.527Z,100309.00
2018-09-23T18:55:12.935Z,100338.00
2018-09-23T19:00:16.798Z,100356.00
2018-09-23T19:05:20.862Z,100380.00
2018-09-23T19:10:24.774Z,100444.00
2018-09-23T19:15:28.659Z,100472.00
2018-09-23T19:20:32.625Z,100501.00
2018-09-23T19:25:36.525Z,100487.00
2018-09-23T19:30:40.580Z,100511.00
2018-09-23T19:35:44.420Z,100519.00
2018-09-23T19:40:48.257Z,100489.00
2018-09-23T19:45:52.098Z,100488.00
2018-09-23T19:50:56.651Z,100457.00
2018-09-23T19:56:00.510Z,100426.00
2018-09-23T20:01:04.557Z,100395.00
2018-09-23T20:06:08.593Z,100372.00
2018-09-23T20:11:12.431Z,100364.00
2018-09-23T20:16:16.268Z,100353.00
2018-09-23T20:21:20.110Z,100340.00
2018-09-23T20:26:24.250Z,100336.00
2018-09-23T20:31:28.125Z,100344.00
2018-09-23T20:36:32.255Z,100360.00
2018-09-23T20:41:36.116Z,100364.00
2018-09-23T20:46:40.289Z,100389.00
2018-09-23T20:51:44.765Z,100377.00
2018-09-23T20:56:48.746Z,100368.00
2018-09-23T21:01:53.151Z,100335.00
2018-09-23T21:06:57.081Z,100213.00
2018-09-23T21:12:00.944Z,100080.00
2018-09-23T21:17:04.832Z,100077.00
2018-09-23T21:22:08.820Z,100092.00
2018-09-23T21:27:12.673Z,100103.00
2018-09-23T21:32:16.541Z,100086.00
2018-09-23T21:37:20.490Z,100067.00
2018-09-23T21:42:24.399Z,99994.00
2018-09-23T21:47:28.246Z,99982.00
2018-09-23T21:52:32.112Z,99953.00
2018-09-23T21:57:35.981Z,99955.00
2018-09-23T22:02:40.136Z,99922.00
2018-09-23T22:07:44.248Z,99867.00
2018-09-23T22:12:48.355Z,99800.00
2018-09-23T22:17:52.219Z,99769.00
2018-09-23T22:22:56.589Z,99720.00
2018-09-23T22:28:00.464Z,99668.00
2018-09-23T22:33:04.333Z,99611.00
2018-09-23T22:38:08.253Z,99555.00
2018-09-23T22:43:12.121Z,99540.00
2018-09-23T22:48:16.233Z,99511.00
2018-09-23T22:53:20.089Z,99485.00
2018-09-23T22:58:24.263Z,99454.00
2018-09-23T23:03:28.125Z,99438.00
2018-09-23T23:08:32.221Z,99444.00
2018-09-23T23:13:36.068Z,99462.00
2018-09-23T23:18:40.250Z,99445.00
2018-09-23T23:23:44.101Z,99451.00
2018-09-23T23:28:48.198Z,99426.00
2018-09-23T23:33:52.457Z,99374.00
2018-09-23T23:38:56.300Z,99342.00
2018-09-23T23:44:00.170Z,99289.00
2018-09-23T23:49:04.046Z,99233.00
2018-09-23T23:54:08.048Z,99182.00
2018-09-23T23:59:12.276Z,99137.00
